sensor_id;sensor_type;location;lat;lon;timestamp;temperature;humidity
21171;DHT22;10743;52.160;20.910;2024-02-21T00:01:32;21.90;37.00
21171;DHT22;10743;52.160;20.910;2024-02-21T00:03:59;21.90;37.00
21171;DHT22;10743;52.160;20.910;2024-02-21T00:06:26;21.90;37.10
21171;DHT22;10743;52.160;20.910;2024-02-21T00:08:53;21.90;37.10
21171;DHT22;10743;52.160;20.910;2024-02-21T00:11:20;21.90;37.20
21171;DHT22;10743;52.160;20.910;2024-02-21T00:13:48;21.90;37.20
21171;DHT22;10743;52.160;20.910;2024-02-21T00:16:15;21.90;37.30
21171;DHT22;10743;52.160;20.910;2024-02-21T00:18:43;21.90;37.40
21171;DHT22;10743;52.160;20.910;2024-02-21T00:21:10;21.90;37.50
21171;DHT22;10743;52.160;20.910;2024-02-21T00:23:45;21.90;37.50
21171;DHT22;10743;52.160;20.910;2024-02-21T00:26:17;21.90;37.60
21171;DHT22;10743;52.160;20.910;2024-02-21T00:28:44;21.90;37.60
21171;DHT22;10743;52.160;20.910;2024-02-21T00:31:11;21.90;37.70
21171;DHT22;10743;52.160;20.910;2024-02-21T00:33:38;22.00;37.60
21171;DHT22;10743;52.160;20.910;2024-02-21T00:36:06;22.00;37.60
21171;DHT22;10743;52.160;20.910;2024-02-21T00:38:33;22.00;37.70
21171;DHT22;10743;52.160;20.910;2024-02-21T00:41:00;22.00;37.80
21171;DHT22;10743;52.160;20.910;2024-02-21T00:43:27;22.00;37.70
21171;DHT22;10743;52.160;20.910;2024-02-21T00:45:54;22.00;37.80
21171;DHT22;10743;52.160;20.910;2024-02-21T00:48:21;22.00;37.80
21171;DHT22;10743;52.160;20.910;2024-02-21T00:50:49;22.10;38.50
21171;DHT22;10743;52.160;20.910;2024-02-21T00:53:16;22.10;37.80
21171;DHT22;10743;52.160;20.910;2024-02-21T00:55:43;22.10;37.80
21171;DHT22;10743;52.160;20.910;2024-02-21T00:58:10;22.10;37.80
21171;DHT22;10743;52.160;20.910;2024-02-21T01:00:37;22.20;37.80
21171;DHT22;10743;52.160;20.910;2024-02-21T01:03:04;22.20;37.80
21171;DHT22;10743;52.160;20.910;2024-02-21T01:05:31;22.20;37.90
21171;DHT22;10743;52.160;20.910;2024-02-21T01:07:58;22.20;38.00
21171;DHT22;10743;52.160;20.910;2024-02-21T01:10:25;22.20;37.90
21171;DHT22;10743;52.160;20.910;2024-02-21T01:12:52;22.20;38.00
21171;DHT22;10743;52.160;20.910;2024-02-21T01:15:20;22.10;38.00
21171;DHT22;10743;52.160;20.910;2024-02-21T01:17:47;22.10;38.10
21171;DHT22;10743;52.160;20.910;2024-02-21T01:20:14;22.20;38.20
21171;DHT22;10743;52.160;20.910;2024-02-21T01:22:41;22.20;38.10
21171;DHT22;10743;52.160;20.910;2024-02-21T01:25:08;22.20;38.10
21171;DHT22;10743;52.160;20.910;2024-02-21T01:27:35;22.20;38.10
21171;DHT22;10743;52.160;20.910;2024-02-21T01:30:03;22.20;38.20
21171;DHT22;10743;52.160;20.910;2024-02-21T01:32:30;22.20;38.30
21171;DHT22;10743;52.160;20.910;2024-02-21T01:34:57;22.20;38.40
21171;DHT22;10743;52.160;20.910;2024-02-21T01:37:24;22.20;38.30
21171;DHT22;10743;52.160;20.910;2024-02-21T01:39:51;22.20;38.40
21171;DHT22;10743;52.160;20.910;2024-02-21T01:42:19;22.20;38.40
21171;DHT22;10743;52.160;20.910;2024-02-21T01:44:46;22.20;38.30
21171;DHT22;10743;52.160;20.910;2024-02-21T01:47:13;22.20;38.30
21171;DHT22;10743;52.160;20.910;2024-02-21T01:49:41;22.30;38.30
21171;DHT22;10743;52.160;20.910;2024-02-21T01:52:08;22.30;38.30
21171;DHT22;10743;52.160;20.910;2024-02-21T01:54:37;22.30;38.30
21171;DHT22;10743;52.160;20.910;2024-02-21T01:57:05;22.20;38.30
21171;DHT22;10743;52.160;20.910;2024-02-21T01:59:32;22.20;38.40
21171;DHT22;10743;52.160;20.910;2024-02-21T02:02:00;22.20;38.40
21171;DHT22;10743;52.160;20.910;2024-02-21T02:04:27;22.30;38.40
21171;DHT22;10743;52.160;20.910;2024-02-21T02:06:55;22.30;38.40
21171;DHT22;10743;52.160;20.910;2024-02-21T02:09:22;22.30;38.40
21171;DHT22;10743;52.160;20.910;2024-02-21T02:11:49;22.30;38.40
21171;DHT22;10743;52.160;20.910;2024-02-21T02:14:17;22.30;38.40
21171;DHT22;10743;52.160;20.910;2024-02-21T02:16:46;22.30;38.40
21171;DHT22;10743;52.160;20.910;2024-02-21T02:19:14;22.30;38.40
21171;DHT22;10743;52.160;20.910;2024-02-21T02:21:46;22.30;38.50
21171;DHT22;10743;52.160;20.910;2024-02-21T02:24:21;22.40;38.40
21171;DHT22;10743;52.160;20.910;2024-02-21T02:26:49;22.40;38.40
21171;DHT22;10743;52.160;20.910;2024-02-21T02:29:16;22.30;38.40
21171;DHT22;10743;52.160;20.910;2024-02-21T02:31:43;22.40;38.40
21171;DHT22;10743;52.160;20.910;2024-02-21T02:34:10;22.40;38.40
21171;DHT22;10743;52.160;20.910;2024-02-21T02:36:37;22.40;38.30
21171;DHT22;10743;52.160;20.910;2024-02-21T02:39:04;22.40;38.30
21171;DHT22;10743;52.160;20.910;2024-02-21T02:41:34;22.40;38.40
21171;DHT22;10743;52.160;20.910;2024-02-21T02:44:01;22.40;38.50
21171;DHT22;10743;52.160;20.910;2024-02-21T02:46:29;22.40;38.50
21171;DHT22;10743;52.160;20.910;2024-02-21T02:48:56;22.40;38.50
21171;DHT22;10743;52.160;20.910;2024-02-21T02:51:23;22.40;38.50
21171;DHT22;10743;52.160;20.910;2024-02-21T02:53:50;22.40;38.40
21171;DHT22;10743;52.160;20.910;2024-02-21T02:56:17;22.40;38.40
21171;DHT22;10743;52.160;20.910;2024-02-21T02:58:44;22.40;38.40
21171;DHT22;10743;52.160;20.910;2024-02-21T03:01:11;22.40;38.50
21171;DHT22;10743;52.160;20.910;2024-02-21T03:03:38;22.40;38.50
21171;DHT22;10743;52.160;20.910;2024-02-21T03:06:05;22.40;38.30
21171;DHT22;10743;52.160;20.910;2024-02-21T03:08:32;22.50;38.30
21171;DHT22;10743;52.160;20.910;2024-02-21T03:10:59;22.50;38.40
21171;DHT22;10743;52.160;20.910;2024-02-21T03:13:27;22.40;38.40
21171;DHT22;10743;52.160;20.910;2024-02-21T03:15:54;22.40;38.40
21171;DHT22;10743;52.160;20.910;2024-02-21T03:18:21;22.40;38.40
21171;DHT22;10743;52.160;20.910;2024-02-21T03:20:48;22.40;38.40
21171;DHT22;10743;52.160;20.910;2024-02-21T03:23:15;22.40;38.40
21171;DHT22;10743;52.160;20.910;2024-02-21T03:25:42;22.40;38.30
21171;DHT22;10743;52.160;20.910;2024-02-21T03:28:09;22.40;38.30
21171;DHT22;10743;52.160;20.910;2024-02-21T03:30:36;22.40;38.30
21171;DHT22;10743;52.160;20.910;2024-02-21T03:33:03;22.50;38.30
21171;DHT22;10743;52.160;20.910;2024-02-21T03:35:30;22.50;38.20
21171;DHT22;10743;52.160;20.910;2024-02-21T03:37:58;22.50;38.10
21171;DHT22;10743;52.160;20.910;2024-02-21T03:40:25;22.40;38.10
21171;DHT22;10743;52.160;20.910;2024-02-21T03:42:52;22.40;38.20
21171;DHT22;10743;52.160;20.910;2024-02-21T03:45:19;22.40;38.20
21171;DHT22;10743;52.160;20.910;2024-02-21T03:47:46;22.40;38.20
21171;DHT22;10743;52.160;20.910;2024-02-21T03:50:13;22.40;38.20
21171;DHT22;10743;52.160;20.910;2024-02-21T03:52:40;22.40;38.20
21171;DHT22;10743;52.160;20.910;2024-02-21T03:55:08;22.40;38.20
21171;DHT22;10743;52.160;20.910;2024-02-21T03:57:35;22.40;38.20
21171;DHT22;10743;52.160;20.910;2024-02-21T04:00:02;22.40;38.30
21171;DHT22;10743;52.160;20.910;2024-02-21T04:02:33;22.40;38.20
21171;DHT22;10743;52.160;20.910;2024-02-21T04:05:00;22.40;38.30
21171;DHT22;10743;52.160;20.910;2024-02-21T04:07:27;22.40;38.30
21171;DHT22;10743;52.160;20.910;2024-02-21T04:09:54;22.40;38.30
21171;DHT22;10743;52.160;20.910;2024-02-21T04:12:21;22.30;38.30
21171;DHT22;10743;52.160;20.910;2024-02-21T04:14:48;22.40;38.50
21171;DHT22;10743;52.160;20.910;2024-02-21T04:17:15;22.40;38.50
21171;DHT22;10743;52.160;20.910;2024-02-21T04:19:42;22.40;38.40
21171;DHT22;10743;52.160;20.910;2024-02-21T04:22:09;22.40;38.30
21171;DHT22;10743;52.160;20.910;2024-02-21T04:24:36;22.40;38.30
21171;DHT22;10743;52.160;20.910;2024-02-21T04:27:03;22.40;38.40
21171;DHT22;10743;52.160;20.910;2024-02-21T04:29:31;22.40;38.40
21171;DHT22;10743;52.160;20.910;2024-02-21T04:31:58;22.40;38.40
21171;DHT22;10743;52.160;20.910;2024-02-21T04:34:25;22.40;38.50
21171;DHT22;10743;52.160;20.910;2024-02-21T04:36:52;22.40;38.50
21171;DHT22;10743;52.160;20.910;2024-02-21T04:39:19;22.40;38.50
21171;DHT22;10743;52.160;20.910;2024-02-21T04:41:46;22.40;38.40
21171;DHT22;10743;52.160;20.910;2024-02-21T04:44:13;22.40;38.50
21171;DHT22;10743;52.160;20.910;2024-02-21T04:46:43;22.40;38.40
21171;DHT22;10743;52.160;20.910;2024-02-21T04:49:10;22.40;38.40
21171;DHT22;10743;52.160;20.910;2024-02-21T04:51:37;22.40;38.40
21171;DHT22;10743;52.160;20.910;2024-02-21T04:54:04;22.40;38.40
21171;DHT22;10743;52.160;20.910;2024-02-21T04:56:31;22.40;38.50
21171;DHT22;10743;52.160;20.910;2024-02-21T04:58:58;22.40;38.50
21171;DHT22;10743;52.160;20.910;2024-02-21T05:01:25;22.40;38.50
21171;DHT22;10743;52.160;20.910;2024-02-21T05:03:52;22.40;38.50
21171;DHT22;10743;52.160;20.910;2024-02-21T05:06:19;22.40;38.50
21171;DHT22;10743;52.160;20.910;2024-02-21T05:08:47;22.40;38.60
21171;DHT22;10743;52.160;20.910;2024-02-21T05:11:14;22.50;38.60
21171;DHT22;10743;52.160;20.910;2024-02-21T05:13:41;22.50;38.50
21171;DHT22;10743;52.160;20.910;2024-02-21T05:16:08;22.50;38.50
21171;DHT22;10743;52.160;20.910;2024-02-21T05:18:35;22.50;38.40
21171;DHT22;10743;52.160;20.910;2024-02-21T05:21:03;22.50;38.40
21171;DHT22;10743;52.160;20.910;2024-02-21T05:23:30;22.60;38.50
21171;DHT22;10743;52.160;20.910;2024-02-21T05:25:57;22.50;38.40
21171;DHT22;10743;52.160;20.910;2024-02-21T05:28:24;22.50;38.40
21171;DHT22;10743;52.160;20.910;2024-02-21T05:30:51;22.50;38.40
21171;DHT22;10743;52.160;20.910;2024-02-21T05:33:18;22.50;38.40
21171;DHT22;10743;52.160;20.910;2024-02-21T05:35:48;22.50;38.50
21171;DHT22;10743;52.160;20.910;2024-02-21T05:38:16;22.50;38.50
21171;DHT22;10743;52.160;20.910;2024-02-21T05:40:45;22.50;38.50
21171;DHT22;10743;52.160;20.910;2024-02-21T05:43:12;22.50;38.50
21171;DHT22;10743;52.160;20.910;2024-02-21T05:45:40;22.60;38.50
21171;DHT22;10743;52.160;20.910;2024-02-21T05:48:07;22.50;38.50
21171;DHT22;10743;52.160;20.910;2024-02-21T05:50:34;22.50;38.40
21171;DHT22;10743;52.160;20.910;2024-02-21T05:53:02;22.50;38.50
21171;DHT22;10743;52.160;20.910;2024-02-21T05:55:30;22.60;38.60
21171;DHT22;10743;52.160;20.910;2024-02-21T05:57:57;22.50;38.60
21171;DHT22;10743;52.160;20.910;2024-02-21T06:00:24;22.50;38.60
21171;DHT22;10743;52.160;20.910;2024-02-21T06:02:51;22.50;38.60
21171;DHT22;10743;52.160;20.910;2024-02-21T06:05:18;22.60;38.60
21171;DHT22;10743;52.160;20.910;2024-02-21T06:07:45;22.60;38.50
21171;DHT22;10743;52.160;20.910;2024-02-21T06:10:12;22.50;38.60
21171;DHT22;10743;52.160;20.910;2024-02-21T06:12:40;22.50;38.70
21171;DHT22;10743;52.160;20.910;2024-02-21T06:15:07;22.50;38.80
21171;DHT22;10743;52.160;20.910;2024-02-21T06:17:34;22.60;38.80
21171;DHT22;10743;52.160;20.910;2024-02-21T06:20:02;22.60;38.70
21171;DHT22;10743;52.160;20.910;2024-02-21T06:22:30;22.60;38.70
21171;DHT22;10743;52.160;20.910;2024-02-21T06:24:57;22.60;38.80
21171;DHT22;10743;52.160;20.910;2024-02-21T06:27:25;22.60;38.90
21171;DHT22;10743;52.160;20.910;2024-02-21T06:29:52;22.60;38.80
21171;DHT22;10743;52.160;20.910;2024-02-21T06:32:19;22.70;38.80
21171;DHT22;10743;52.160;20.910;2024-02-21T06:34:46;22.70;38.80
21171;DHT22;10743;52.160;20.910;2024-02-21T06:37:13;22.60;38.90
21171;DHT22;10743;52.160;20.910;2024-02-21T06:39:40;22.60;38.90
21171;DHT22;10743;52.160;20.910;2024-02-21T06:42:07;22.60;39.60
21171;DHT22;10743;52.160;20.910;2024-02-21T06:44:34;22.70;39.00
21171;DHT22;10743;52.160;20.910;2024-02-21T06:47:07;22.70;39.10
21171;DHT22;10743;52.160;20.910;2024-02-21T06:49:35;22.70;39.10
21171;DHT22;10743;52.160;20.910;2024-02-21T06:52:04;22.70;39.10
21171;DHT22;10743;52.160;20.910;2024-02-21T06:54:32;22.70;39.10
21171;DHT22;10743;52.160;20.910;2024-02-21T06:56:59;22.70;39.10
21171;DHT22;10743;52.160;20.910;2024-02-21T06:59:26;22.80;39.10
21171;DHT22;10743;52.160;20.910;2024-02-21T07:01:54;22.80;39.00
21171;DHT22;10743;52.160;20.910;2024-02-21T07:04:22;22.80;39.00
21171;DHT22;10743;52.160;20.910;2024-02-21T07:06:49;22.90;39.10
21171;DHT22;10743;52.160;20.910;2024-02-21T07:09:17;22.90;39.00
21171;DHT22;10743;52.160;20.910;2024-02-21T07:11:43;22.90;39.00
21171;DHT22;10743;52.160;20.910;2024-02-21T07:14:11;22.90;39.10
21171;DHT22;10743;52.160;20.910;2024-02-21T07:16:38;22.90;39.00
21171;DHT22;10743;52.160;20.910;2024-02-21T07:19:05;23.00;38.90
21171;DHT22;10743;52.160;20.910;2024-02-21T07:21:32;23.00;39.00
21171;DHT22;10743;52.160;20.910;2024-02-21T07:24:00;23.00;38.90
21171;DHT22;10743;52.160;20.910;2024-02-21T07:26:27;23.10;38.90
21171;DHT22;10743;52.160;20.910;2024-02-21T07:28:54;23.10;38.90
21171;DHT22;10743;52.160;20.910;2024-02-21T07:31:21;23.10;38.80
21171;DHT22;10743;52.160;20.910;2024-02-21T07:33:48;23.10;38.80
21171;DHT22;10743;52.160;20.910;2024-02-21T07:36:15;23.20;38.80
21171;DHT22;10743;52.160;20.910;2024-02-21T07:38:44;23.20;38.50
21171;DHT22;10743;52.160;20.910;2024-02-21T07:41:11;23.20;38.60
21171;DHT22;10743;52.160;20.910;2024-02-21T07:43:38;23.20;38.60
21171;DHT22;10743;52.160;20.910;2024-02-21T07:46:05;23.30;38.50
21171;DHT22;10743;52.160;20.910;2024-02-21T07:48:32;23.30;38.50
21171;DHT22;10743;52.160;20.910;2024-02-21T07:51:01;23.30;38.50
21171;DHT22;10743;52.160;20.910;2024-02-21T07:53:28;23.40;38.50
21171;DHT22;10743;52.160;20.910;2024-02-21T07:55:55;23.40;38.30
21171;DHT22;10743;52.160;20.910;2024-02-21T07:58:22;23.50;38.30
21171;DHT22;10743;52.160;20.910;2024-02-21T08:00:49;23.50;38.40
21171;DHT22;10743;52.160;20.910;2024-02-21T08:03:16;23.50;38.20
21171;DHT22;10743;52.160;20.910;2024-02-21T08:05:44;23.60;38.20
21171;DHT22;10743;52.160;20.910;2024-02-21T08:08:12;23.70;38.20
21171;DHT22;10743;52.160;20.910;2024-02-21T08:10:45;23.70;38.20
21171;DHT22;10743;52.160;20.910;2024-02-21T08:13:12;23.70;38.10
21171;DHT22;10743;52.160;20.910;2024-02-21T08:15:39;23.70;38.20
21171;DHT22;10743;52.160;20.910;2024-02-21T08:18:08;23.80;38.00
21171;DHT22;10743;52.160;20.910;2024-02-21T08:20:36;23.80;38.00
21171;DHT22;10743;52.160;20.910;2024-02-21T08:23:03;23.80;38.00
21171;DHT22;10743;52.160;20.910;2024-02-21T08:25:30;23.90;37.90
21171;DHT22;10743;52.160;20.910;2024-02-21T08:27:59;23.80;38.00
21171;DHT22;10743;52.160;20.910;2024-02-21T08:30:26;23.90;37.90
21171;DHT22;10743;52.160;20.910;2024-02-21T08:32:53;23.90;38.00
21171;DHT22;10743;52.160;20.910;2024-02-21T08:35:21;23.80;38.20
21171;DHT22;10743;52.160;20.910;2024-02-21T08:37:51;23.90;38.10
21171;DHT22;10743;52.160;20.910;2024-02-21T08:40:18;23.90;37.80
21171;DHT22;10743;52.160;20.910;2024-02-21T08:42:48;24.00;37.80
21171;DHT22;10743;52.160;20.910;2024-02-21T08:45:16;24.00;38.00
21171;DHT22;10743;52.160;20.910;2024-02-21T08:47:43;23.90;38.10
21171;DHT22;10743;52.160;20.910;2024-02-21T08:50:11;23.90;38.20
21171;DHT22;10743;52.160;20.910;2024-02-21T08:52:53;24.00;38.00
21171;DHT22;10743;52.160;20.910;2024-02-21T08:55:21;24.10;37.80
21171;DHT22;10743;52.160;20.910;2024-02-21T08:57:48;24.20;37.70
21171;DHT22;10743;52.160;20.910;2024-02-21T09:00:16;24.20;37.70
21171;DHT22;10743;52.160;20.910;2024-02-21T09:02:43;24.20;37.90
21171;DHT22;10743;52.160;20.910;2024-02-21T09:05:11;24.20;38.00
21171;DHT22;10743;52.160;20.910;2024-02-21T09:07:38;24.20;37.80
21171;DHT22;10743;52.160;20.910;2024-02-21T09:10:06;24.30;37.60
21171;DHT22;10743;52.160;20.910;2024-02-21T09:12:33;24.30;37.60
21171;DHT22;10743;52.160;20.910;2024-02-21T09:15:00;24.40;37.60
21171;DHT22;10743;52.160;20.910;2024-02-21T09:17:27;24.40;37.50
21171;DHT22;10743;52.160;20.910;2024-02-21T09:19:56;24.40;37.60
21171;DHT22;10743;52.160;20.910;2024-02-21T09:22:26;24.40;37.60
21171;DHT22;10743;52.160;20.910;2024-02-21T09:24:54;24.40;37.60
21171;DHT22;10743;52.160;20.910;2024-02-21T09:27:21;24.50;37.70
21171;DHT22;10743;52.160;20.910;2024-02-21T09:29:49;24.50;37.50
21171;DHT22;10743;52.160;20.910;2024-02-21T09:32:17;24.50;37.50
21171;DHT22;10743;52.160;20.910;2024-02-21T09:34:45;24.40;37.50
21171;DHT22;10743;52.160;20.910;2024-02-21T09:37:13;24.50;37.30
21171;DHT22;10743;52.160;20.910;2024-02-21T09:39:40;24.50;37.30
21171;DHT22;10743;52.160;20.910;2024-02-21T09:42:11;24.50;37.40
21171;DHT22;10743;52.160;20.910;2024-02-21T09:44:38;24.50;37.70
21171;DHT22;10743;52.160;20.910;2024-02-21T09:47:40;24.60;37.20
21171;DHT22;10743;52.160;20.910;2024-02-21T09:50:15;24.60;37.20
21171;DHT22;10743;52.160;20.910;2024-02-21T09:52:43;24.60;37.00
21171;DHT22;10743;52.160;20.910;2024-02-21T09:55:11;24.70;37.00
21171;DHT22;10743;52.160;20.910;2024-02-21T09:57:41;24.80;36.90
21171;DHT22;10743;52.160;20.910;2024-02-21T10:00:08;24.80;37.10
21171;DHT22;10743;52.160;20.910;2024-02-21T10:02:39;24.80;37.10
21171;DHT22;10743;52.160;20.910;2024-02-21T10:05:06;24.70;37.10
21171;DHT22;10743;52.160;20.910;2024-02-21T10:07:36;24.80;37.00
21171;DHT22;10743;52.160;20.910;2024-02-21T10:10:05;24.80;37.10
21171;DHT22;10743;52.160;20.910;2024-02-21T10:12:33;24.80;37.10
21171;DHT22;10743;52.160;20.910;2024-02-21T10:15:04;24.70;37.20
21171;DHT22;10743;52.160;20.910;2024-02-21T10:17:32;24.80;37.00
21171;DHT22;10743;52.160;20.910;2024-02-21T10:20:09;24.80;36.80
21171;DHT22;10743;52.160;20.910;2024-02-21T10:22:38;24.80;37.00
21171;DHT22;10743;52.160;20.910;2024-02-21T10:25:13;24.90;36.80
21171;DHT22;10743;52.160;20.910;2024-02-21T10:27:41;24.90;36.80
21171;DHT22;10743;52.160;20.910;2024-02-21T10:30:13;24.90;36.80
21171;DHT22;10743;52.160;20.910;2024-02-21T10:32:53;24.90;36.90
21171;DHT22;10743;52.160;20.910;2024-02-21T10:35:32;25.00;36.40
21171;DHT22;10743;52.160;20.910;2024-02-21T10:38:00;25.00;36.60
21171;DHT22;10743;52.160;20.910;2024-02-21T10:40:28;25.00;36.70
21171;DHT22;10743;52.160;20.910;2024-02-21T10:43:02;24.90;36.90
21171;DHT22;10743;52.160;20.910;2024-02-21T10:45:34;25.00;36.70
21171;DHT22;10743;52.160;20.910;2024-02-21T10:48:13;25.00;36.70
21171;DHT22;10743;52.160;20.910;2024-02-21T10:50:56;25.00;36.50
21171;DHT22;10743;52.160;20.910;2024-02-21T10:53:44;25.00;36.50
21171;DHT22;10743;52.160;20.910;2024-02-21T10:56:34;25.10;36.70
21171;DHT22;10743;52.160;20.910;2024-02-21T10:59:04;25.10;36.70
21171;DHT22;10743;52.160;20.910;2024-02-21T11:01:33;25.10;36.70
21171;DHT22;10743;52.160;20.910;2024-02-21T11:04:05;25.10;36.70
21171;DHT22;10743;52.160;20.910;2024-02-21T11:06:34;25.00;36.70
21171;DHT22;10743;52.160;20.910;2024-02-21T11:09:07;25.00;36.50
21171;DHT22;10743;52.160;20.910;2024-02-21T11:11:37;25.00;36.50
21171;DHT22;10743;52.160;20.910;2024-02-21T11:14:17;25.00;36.50
21171;DHT22;10743;52.160;20.910;2024-02-21T11:16:45;25.00;36.60
21171;DHT22;10743;52.160;20.910;2024-02-21T11:19:19;25.10;36.50
21171;DHT22;10743;52.160;20.910;2024-02-21T11:21:47;25.20;36.60
21171;DHT22;10743;52.160;20.910;2024-02-21T11:24:31;25.00;36.80
21171;DHT22;10743;52.160;20.910;2024-02-21T11:29:45;25.00;37.00
21171;DHT22;10743;52.160;20.910;2024-02-21T11:32:18;25.00;36.90
21171;DHT22;10743;52.160;20.910;2024-02-21T11:34:57;25.00;37.10
21171;DHT22;10743;52.160;20.910;2024-02-21T11:37:35;25.00;37.30
21171;DHT22;10743;52.160;20.910;2024-02-21T11:40:07;25.00;37.40
21171;DHT22;10743;52.160;20.910;2024-02-21T11:42:38;25.00;37.20
21171;DHT22;10743;52.160;20.910;2024-02-21T11:45:06;25.00;37.50
21171;DHT22;10743;52.160;20.910;2024-02-21T11:47:36;25.00;37.40
21171;DHT22;10743;52.160;20.910;2024-02-21T11:50:10;25.00;37.50
21171;DHT22;10743;52.160;20.910;2024-02-21T11:52:37;25.00;37.30
21171;DHT22;10743;52.160;20.910;2024-02-21T11:55:05;25.00;37.60
21171;DHT22;10743;52.160;20.910;2024-02-21T11:57:36;25.00;37.40
21171;DHT22;10743;52.160;20.910;2024-02-21T12:00:18;25.00;37.70
21171;DHT22;10743;52.160;20.910;2024-02-21T12:02:49;24.90;37.80
21171;DHT22;10743;52.160;20.910;2024-02-21T12:05:18;25.00;37.80
21171;DHT22;10743;52.160;20.910;2024-02-21T12:07:46;25.00;37.60
21171;DHT22;10743;52.160;20.910;2024-02-21T12:10:14;25.00;37.60
21171;DHT22;10743;52.160;20.910;2024-02-21T12:12:41;25.00;37.80
21171;DHT22;10743;52.160;20.910;2024-02-21T12:15:08;24.90;37.80
21171;DHT22;10743;52.160;20.910;2024-02-21T12:17:36;25.00;37.60
21171;DHT22;10743;52.160;20.910;2024-02-21T12:20:04;24.90;37.80
21171;DHT22;10743;52.160;20.910;2024-02-21T12:22:36;24.90;37.80
21171;DHT22;10743;52.160;20.910;2024-02-21T12:25:04;24.90;37.80
21171;DHT22;10743;52.160;20.910;2024-02-21T12:27:34;24.90;37.80
21171;DHT22;10743;52.160;20.910;2024-02-21T12:30:01;24.90;37.90
21171;DHT22;10743;52.160;20.910;2024-02-21T12:32:28;25.00;37.90
21171;DHT22;10743;52.160;20.910;2024-02-21T12:34:55;25.00;37.80
21171;DHT22;10743;52.160;20.910;2024-02-21T12:37:24;24.80;38.10
21171;DHT22;10743;52.160;20.910;2024-02-21T12:39:51;24.80;38.30
21171;DHT22;10743;52.160;20.910;2024-02-21T12:42:19;24.80;38.40
21171;DHT22;10743;52.160;20.910;2024-02-21T12:44:46;24.80;38.30
21171;DHT22;10743;52.160;20.910;2024-02-21T12:47:13;24.80;38.40
21171;DHT22;10743;52.160;20.910;2024-02-21T12:49:40;24.80;38.30
21171;DHT22;10743;52.160;20.910;2024-02-21T12:52:12;25.00;37.90
21171;DHT22;10743;52.160;20.910;2024-02-21T12:54:40;24.90;38.00
21171;DHT22;10743;52.160;20.910;2024-02-21T12:57:07;24.90;38.80
21171;DHT22;10743;52.160;20.910;2024-02-21T12:59:35;24.80;38.30
21171;DHT22;10743;52.160;20.910;2024-02-21T13:02:02;24.80;38.30
21171;DHT22;10743;52.160;20.910;2024-02-21T13:04:29;24.80;38.30
21171;DHT22;10743;52.160;20.910;2024-02-21T13:06:56;24.70;38.50
21171;DHT22;10743;52.160;20.910;2024-02-21T13:09:23;24.80;38.30
21171;DHT22;10743;52.160;20.910;2024-02-21T13:11:50;24.80;38.50
21171;DHT22;10743;52.160;20.910;2024-02-21T13:14:18;24.80;38.40
21171;DHT22;10743;52.160;20.910;2024-02-21T13:16:45;24.80;38.50
21171;DHT22;10743;52.160;20.910;2024-02-21T13:19:12;24.70;38.50
21171;DHT22;10743;52.160;20.910;2024-02-21T13:21:44;24.70;38.50
21171;DHT22;10743;52.160;20.910;2024-02-21T13:24:11;24.70;38.50
21171;DHT22;10743;52.160;20.910;2024-02-21T13:26:38;24.70;38.60
21171;DHT22;10743;52.160;20.910;2024-02-21T13:29:05;24.60;38.70
21171;DHT22;10743;52.160;20.910;2024-02-21T13:31:33;24.60;38.70
21171;DHT22;10743;52.160;20.910;2024-02-21T13:34:00;24.70;38.70
21171;DHT22;10743;52.160;20.910;2024-02-21T13:36:27;24.70;38.70
21171;DHT22;10743;52.160;20.910;2024-02-21T13:38:54;24.70;39.30
21171;DHT22;10743;52.160;20.910;2024-02-21T13:41:21;24.70;38.50
21171;DHT22;10743;52.160;20.910;2024-02-21T13:43:50;24.70;38.50
21171;DHT22;10743;52.160;20.910;2024-02-21T13:46:17;24.70;38.50
21171;DHT22;10743;52.160;20.910;2024-02-21T13:48:44;24.80;38.40
21171;DHT22;10743;52.160;20.910;2024-02-21T13:51:11;24.70;38.60
21171;DHT22;10743;52.160;20.910;2024-02-21T13:53:38;24.80;38.50
21171;DHT22;10743;52.160;20.910;2024-02-21T13:56:06;24.70;38.50
21171;DHT22;10743;52.160;20.910;2024-02-21T13:58:33;24.70;38.50
21171;DHT22;10743;52.160;20.910;2024-02-21T14:01:00;24.70;38.50
21171;DHT22;10743;52.160;20.910;2024-02-21T14:03:27;24.80;38.40
21171;DHT22;10743;52.160;20.910;2024-02-21T14:05:54;24.70;38.50
21171;DHT22;10743;52.160;20.910;2024-02-21T14:08:21;24.60;38.70
21171;DHT22;10743;52.160;20.910;2024-02-21T14:10:51;24.60;38.60
21171;DHT22;10743;52.160;20.910;2024-02-21T14:13:18;24.70;38.60
21171;DHT22;10743;52.160;20.910;2024-02-21T14:15:45;24.70;38.50
21171;DHT22;10743;52.160;20.910;2024-02-21T14:18:13;24.80;38.30
21171;DHT22;10743;52.160;20.910;2024-02-21T14:20:40;24.80;38.30
21171;DHT22;10743;52.160;20.910;2024-02-21T14:23:07;24.70;38.40
21171;DHT22;10743;52.160;20.910;2024-02-21T14:25:35;24.80;38.40
21171;DHT22;10743;52.160;20.910;2024-02-21T14:28:02;24.70;38.50
21171;DHT22;10743;52.160;20.910;2024-02-21T14:30:29;24.60;38.60
21171;DHT22;10743;52.160;20.910;2024-02-21T14:32:56;24.70;38.20
21171;DHT22;10743;52.160;20.910;2024-02-21T14:35:24;24.80;38.30
21171;DHT22;10743;52.160;20.910;2024-02-21T14:37:51;24.80;38.20
21171;DHT22;10743;52.160;20.910;2024-02-21T14:40:23;24.70;38.30
21171;DHT22;10743;52.160;20.910;2024-02-21T14:42:51;24.70;38.30
21171;DHT22;10743;52.160;20.910;2024-02-21T14:45:19;24.70;38.30
21171;DHT22;10743;52.160;20.910;2024-02-21T14:47:46;24.70;38.30
21171;DHT22;10743;52.160;20.910;2024-02-21T14:50:13;24.70;38.20
21171;DHT22;10743;52.160;20.910;2024-02-21T14:52:40;24.70;38.00
21171;DHT22;10743;52.160;20.910;2024-02-21T14:55:07;24.70;38.10
21171;DHT22;10743;52.160;20.910;2024-02-21T14:57:35;24.60;38.20
21171;DHT22;10743;52.160;20.910;2024-02-21T15:00:05;24.70;38.20
21171;DHT22;10743;52.160;20.910;2024-02-21T15:02:34;24.60;38.40
21171;DHT22;10743;52.160;20.910;2024-02-21T15:05:02;24.60;38.40
21171;DHT22;10743;52.160;20.910;2024-02-21T15:07:31;24.60;38.30
21171;DHT22;10743;52.160;20.910;2024-02-21T15:09:58;24.60;38.10
21171;DHT22;10743;52.160;20.910;2024-02-21T15:12:26;24.60;38.10
21171;DHT22;10743;52.160;20.910;2024-02-21T15:14:53;24.70;38.20
21171;DHT22;10743;52.160;20.910;2024-02-21T15:17:20;24.70;38.70
21171;DHT22;10743;52.160;20.910;2024-02-21T15:19:47;24.60;38.00
21171;DHT22;10743;52.160;20.910;2024-02-21T15:22:15;24.60;38.20
21171;DHT22;10743;52.160;20.910;2024-02-21T15:24:44;24.60;38.30